Middleburg, VA

11:01 PM EDT on March 26, 2015 (GMT -0400)
Kinsman Farm | | Change Station
CLOSE
Current Station
Personal Weather Station
Location: Philomont, VA
Elevation: 510 ft
Nearby Weather Stations

Elev 510 ft 39.05 °N, 77.74 °W | Updated 1 minute ago

Overcast
Overcast
50.2 °F
Feels Like 50.2 °F
N
11.0
Wind Variable Wind from NNE
Gusts 11.0 mph

Today
High -- | Low -- °F
--% Chance of Precip.
Yesterday
High -- | Low -- °F
Precip. -- in
7:05 AM 7:28 PM
Waxing Crescent, 48% visible
Pressure 29.76 in
Visibility 10.0 miles
Clouds Scattered Clouds 2300 ft
Scattered Clouds 7000 ft
Overcast 9000 ft
Dew Point 44 °F
Humidity 78%
Rainfall 0.52 in
Snow Depth Not available.
UV 0 out of 12
Pollen 9.20 out of 12
Air Quality Not available.
Flu Activity Not available.
METAR KJYO 270235Z AUTO 34014G20KT 10SM SCT023 SCT070 OVC090 11/08 A2976 RMK AO2

More Conditions Fewer Conditions

Pressure 29.76 in
Visibility 10.0 miles
Clouds Scattered Clouds 2300 ft
Scattered Clouds 7000 ft
Overcast 9000 ft
Dew Point 44 °F
Humidity 78%
Rainfall 0.52 in
Snow Depth Not available.
UV 0 out of 12
Pollen 9.20 out of 12
Air Quality Not available.
Flu Activity Not available.
METAR KJYO 270235Z AUTO 34014G20KT 10SM SCT023 SCT070 OVC090 11/08 A2976 RMK AO2

More Conditions Fewer Conditions

10-Day Weather Forecast

Almanac

Astronomy

Mar. 26, 2015 Rise Set
Actual Time
Civil Twilight
Nautical Twilight
Astronomical Twilight
Moon
Length of Visible Light
Length of Day
Tomorrow will be .
, % of the Moon is Illuminated

Today's Extremes

State Highs State Lows

Community

WunderPhotos

Upload Photos

1,808,690 photos uploaded!

WunderBlogs® & News

Nearby

Air Quality

  Air Quality AQ Index Pollutant
Not available.

Snow Depth

Station Depth Elevation

Earthquake Activity

City Distance Mag. Time & Date
Minimum magnitude displayed is 2.5.

Coastal Water Temperatures

Place Temperature

Stations

Nearby Weather Stations

Station Location Temp. Windchill Dew Point Humidity Wind Precip. Elev Updated Type